Time;durP1;ratioP1;P1;durP2;ratioP2;P2;SDS_P1;SDS_P2;PMS_P1;PMS_P2;Temp;Humidity;BMP_temperature;BMP_pressure;BME280_temperature;BME280_humidity;BME280_pressure;Samples;Min_cycle;Max_cycle;Signal;HPM_P1;HPM_P2
2023/06/26 00:00:40;;;;;;;9.48;4.82;;;;;;;24.17;59.19;99190.63;3148138;28;19939;-70
2023/06/26 00:02:12;;;;;;;11.85;5.40;;;;;;;24.21;59.16;99191.94;3142788;28;20501;-70
2023/06/26 00:03:44;;;;;;;11.18;5.93;;;;;;;24.22;59.00;99190.94;3152193;28;20060;-71
2023/06/26 00:05:16;;;;;;;9.95;5.32;;;;;;;24.23;58.82;99192.59;3141701;28;20079;-71
2023/06/26 00:06:48;;;;;;;9.32;5.82;;;;;;;24.23;58.91;99193.44;3150045;28;20125;-71
2023/06/26 00:08:19;;;;;;;10.98;5.95;;;;;;;24.24;58.56;99192.41;3140382;28;20053;-70
2023/06/26 00:09:50;;;;;;;11.20;5.93;;;;;;;24.26;59.06;99193.09;3151326;28;20052;-71
2023/06/26 00:11:22;;;;;;;10.48;5.38;;;;;;;24.27;58.78;99189.41;3143138;28;20601;-70
2023/06/26 00:12:56;;;;;;;8.98;5.70;;;;;;;24.26;58.20;99186.94;3150524;28;20051;-72
2023/06/26 00:14:28;;;;;;;;;;;;;;;24.10;58.82;99182.50;3140686;28;20061;-72
2023/06/26 00:16:02;;;;;;;12.80;5.70;;;;;;;24.15;58.87;99180.16;3150190;28;19924;-73
2023/06/26 00:17:37;;;;;;;11.65;5.93;;;;;;;24.21;58.89;99176.78;3151845;28;20046;-72
2023/06/26 00:19:08;;;;;;;12.38;5.60;;;;;;;24.24;58.58;99189.75;3152359;28;20115;-72
2023/06/26 00:20:40;;;;;;;11.75;5.40;;;;;;;24.20;58.73;99183.13;3152227;28;20060;-72
2023/06/26 00:22:12;;;;;;;10.35;6.63;;;;;;;24.27;58.49;99194.72;3143565;28;20500;-72
2023/06/26 00:23:44;;;;;;;9.40;5.35;;;;;;;24.29;58.79;99186.59;3146910;28;20513;-72
2023/06/26 00:25:17;;;;;;;10.43;5.20;;;;;;;24.30;58.75;99190.91;3151881;28;20055;-72
2023/06/26 00:26:48;;;;;;;11.32;5.60;;;;;;;24.28;58.56;99176.94;3152011;28;20114;-72
2023/06/26 00:28:21;;;;;;;12.85;5.25;;;;;;;24.30;58.80;99199.72;3148503;28;20135;-72
2023/06/26 00:29:53;;;;;;;;;;;;;;;24.12;58.97;99195.63;3139805;28;20048;-72
2023/06/26 00:31:25;;;;;;;9.38;5.72;;;;;;;24.19;59.12;99196.59;3143334;28;19960;-72
2023/06/26 00:32:57;;;;;;;7.75;4.70;;;;;;;24.22;58.63;99198.91;3152137;28;20102;-71
2023/06/26 00:34:29;;;;;;;10.10;5.07;;;;;;;24.22;58.55;99199.72;3151720;28;20051;-70
2023/06/26 00:36:00;;;;;;;10.98;5.95;;;;;;;24.27;58.74;99204.56;3152223;28;20056;-71
2023/06/26 00:37:31;;;;;;;10.65;5.95;;;;;;;24.29;59.07;99200.72;3148249;28;20060;-73
2023/06/26 00:39:04;;;;;;;10.55;5.82;;;;;;;24.30;58.62;99198.88;3142266;28;20114;-74
2023/06/26 00:40:36;;;;;;;13.60;5.38;;;;;;;24.30;58.53;99194.38;3141644;28;20135;-74
2023/06/26 00:42:08;;;;;;;9.27;6.07;;;;;;;24.30;58.93;99198.88;3151742;28;20050;-71
2023/06/26 00:43:42;;;;;;;11.30;5.45;;;;;;;24.31;58.93;99200.53;3147564;28;20063;-72
2023/06/26 00:45:14;;;;;;;11.35;5.32;;;;;;;24.32;58.99;99196.06;3151872;28;20435;-71
2023/06/26 00:46:46;;;;;;;8.75;4.95;;;;;;;24.31;58.77;99197.88;3149575;28;20052;-72
2023/06/26 00:48:19;;;;;;;9.52;5.28;;;;;;;24.31;59.08;99205.84;3126909;28;20508;-71
2023/06/26 00:49:52;;;;;;;12.30;5.50;;;;;;;24.27;58.68;99194.72;3151250;28;20059;-73
2023/06/26 00:51:23;;;;;;;8.07;4.90;;;;;;;24.26;59.04;99201.06;3151167;28;20141;-70
2023/06/26 00:53:00;;;;;;;10.88;5.45;;;;;;;24.25;59.21;99199.41;3152057;28;20162;-71
2023/06/26 00:54:32;;;;;;;11.77;5.28;;;;;;;24.25;58.78;99204.75;3151918;28;20060;-71
2023/06/26 00:56:06;;;;;;;11.20;6.00;;;;;;;24.21;58.97;99197.25;3151694;28;20056;-70
2023/06/26 00:57:38;;;;;;;11.48;5.28;;;;;;;24.18;59.00;99192.28;3142202;28;20062;-72
2023/06/26 00:59:11;;;;;;;15.75;5.50;;;;;;;24.16;59.39;99195.09;3148114;28;20084;-71
2023/06/26 01:00:45;;;;;;;12.43;6.13;;;;;;;24.16;59.61;99191.63;3143316;28;20322;-72
2023/06/26 01:02:19;;;;;;;12.15;5.50;;;;;;;24.15;59.60;99188.13;3144682;28;20051;-72
2023/06/26 01:03:51;;;;;;;9.65;5.78;;;;;;;24.12;59.29;99193.78;3150922;28;20830;-73
2023/06/26 01:05:23;;;;;;;10.40;6.25;;;;;;;24.11;59.46;99188.63;3145933;28;20105;-72
2023/06/26 01:06:56;;;;;;;10.45;6.03;;;;;;;24.09;59.57;99188.81;3148637;28;20131;-72
2023/06/26 01:08:30;;;;;;;12.32;6.22;;;;;;;24.00;60.09;99181.88;3138677;28;20056;-72
2023/06/26 01:10:02;;;;;;;15.73;5.70;;;;;;;24.02;60.14;99191.34;3147309;28;20055;-72
2023/06/26 01:11:33;;;;;;;12.57;5.97;;;;;;;24.01;59.74;99188.84;3147563;28;20052;-72
2023/06/26 01:13:05;;;;;;;11.70;5.82;;;;;;;24.03;59.89;99189.50;3142126;28;20128;-72
2023/06/26 01:14:39;;;;;;;11.43;6.63;;;;;;;24.00;59.92;99177.38;3139827;28;20056;-72
2023/06/26 01:16:12;;;;;;;9.90;5.82;;;;;;;23.98;60.29;99179.38;3140909;28;20049;-72
2023/06/26 01:17:45;;;;;;;11.05;6.18;;;;;;;24.01;60.39;99172.88;3151415;28;20106;-72
2023/06/26 01:19:24;;;;;;;13.45;6.47;;;;;;;23.86;60.43;99161.28;3151540;28;20052;-72
2023/06/26 01:21:00;;;;;;;10.68;6.68;;;;;;;23.91;60.28;99173.06;3151902;28;20048;-72
2023/06/26 01:22:44;;;;;;;10.55;6.47;;;;;;;23.93;60.37;99180.88;3153549;28;20095;-72
2023/06/26 01:24:20;;;;;;;13.95;6.63;;;;;;;23.90;60.72;99175.88;3153838;28;20080;-72
2023/06/26 01:26:13;;;;;;;12.93;5.95;;;;;;;23.88;60.67;99175.25;3152221;28;20060;-72
2023/06/26 01:27:46;;;;;;;14.88;6.10;;;;;;;23.87;60.62;99177.09;3144821;28;20047;-72
2023/06/26 01:29:19;;;;;;;;;;;;;;;23.72;60.78;99182.28;3149944;28;20811;-71
2023/06/26 01:30:52;;;;;;;11.25;6.20;;;;;;;23.76;60.69;99175.59;3150853;28;19945;-72
2023/06/26 01:32:24;;;;;;;11.00;6.68;;;;;;;23.79;60.74;99172.59;3143423;28;20052;-72
2023/06/26 01:33:57;;;;;;;11.05;6.55;;;;;;;23.80;60.63;99162.78;3153453;28;20074;-73
2023/06/26 01:35:30;;;;;;;12.52;7.07;;;;;;;23.73;60.88;99162.66;3153381;28;20071;-73
2023/06/26 01:37:02;;;;;;;14.30;6.78;;;;;;;23.75;60.89;99168.63;3141346;28;20125;-73
2023/06/26 01:38:34;;;;;;;11.02;6.22;;;;;;;23.74;60.92;99166.13;3153573;28;20543;-73
2023/06/26 01:40:08;;;;;;;14.40;7.32;;;;;;;23.69;61.23;99160.44;3148307;28;20082;-72
2023/06/26 01:41:41;;;;;;;;;;;;;;;23.52;61.49;99157.84;3154187;28;20063;-73
2023/06/26 01:43:24;;;;;;;16.33;6.38;;;;;;;23.54;61.36;99160.31;3143043;28;19924;-73
2023/06/26 01:44:57;;;;;;;12.00;6.85;;;;;;;23.55;61.59;99160.16;3141165;28;20056;-71
2023/06/26 01:46:37;;;;;;;14.02;7.20;;;;;;;23.56;61.60;99164.47;3141076;28;20049;-71
2023/06/26 01:48:12;;;;;;;11.07;6.80;;;;;;;23.55;61.78;99162.81;3150946;28;20243;-71
2023/06/26 01:49:49;;;;;;;15.35;6.82;;;;;;;23.57;61.57;99165.28;3153084;28;20056;-71
2023/06/26 01:51:24;;;;;;;14.48;7.05;;;;;;;23.55;61.80;99162.00;3153299;28;20245;-71
2023/06/26 01:53:02;;;;;;;17.83;7.78;;;;;;;23.51;61.67;99161.47;3153710;28;20052;-71
2023/06/26 01:54:37;;;;;;;14.80;7.32;;;;;;;23.49;62.28;99157.34;3153668;28;20063;-72
2023/06/26 01:56:14;;;;;;;17.50;7.43;;;;;;;23.48;62.29;99159.16;3153685;28;20052;-71
2023/06/26 01:57:49;;;;;;;15.73;8.25;;;;;;;23.50;61.90;99161.66;3153647;28;20071;-71
2023/06/26 01:59:23;;;;;;;12.57;7.72;;;;;;;23.48;62.04;99160.97;3143422;28;20048;-71
2023/06/26 02:00:55;;;;;;;14.77;7.18;;;;;;;23.49;62.02;99162.66;3144652;28;20056;-71
2023/06/26 02:02:29;;;;;;;12.13;7.43;;;;;;;23.49;62.05;99162.66;3150098;28;20048;-71
2023/06/26 02:04:00;;;;;;;13.57;7.18;;;;;;;23.50;62.34;99164.31;3149866;28;20144;-71
2023/06/26 02:05:32;;;;;;;11.95;7.15;;;;;;;23.43;62.20;99152.72;3148708;28;20509;-72
2023/06/26 02:07:03;;;;;;;9.75;6.25;;;;;;;23.48;62.22;99167.13;3153529;28;20064;-71
2023/06/26 02:08:35;;;;;;;13.23;7.50;;;;;;;23.47;62.39;99168.13;3146759;28;20040;-71
2023/06/26 02:10:19;;;;;;;15.68;8.10;;;;;;;23.43;62.09;99172.13;3146297;28;20216;-71
2023/06/26 02:11:50;;;;;;;12.70;7.50;;;;;;;23.41;62.24;99168.81;3147223;28;20467;-71
2023/06/26 02:13:23;;;;;;;17.27;8.25;;;;;;;23.41;62.41;99170.63;3153151;28;20256;-73
2023/06/26 02:14:54;;;;;;;;;;;;;;;23.23;62.88;99170.81;3150109;28;20094;-72
2023/06/26 02:16:26;;;;;;;15.65;7.93;;;;;;;23.26;62.83;99176.63;3149105;28;19946;-72
2023/06/26 02:17:58;;;;;;;15.60;8.00;;;;;;;23.30;62.93;99169.97;3144359;28;20051;-72
2023/06/26 02:19:29;;;;;;;15.65;8.13;;;;;;;23.27;62.88;99166.81;3152773;28;20212;-72
2023/06/26 02:21:04;;;;;;;16.10;8.52;;;;;;;23.28;63.13;99176.44;3153450;28;20109;-72
2023/06/26 02:22:36;;;;;;;14.75;7.90;;;;;;;23.28;62.76;99171.97;3153075;28;20071;-72
2023/06/26 02:24:08;;;;;;;17.08;7.68;;;;;;;23.29;63.15;99167.47;3153205;28;20140;-72
2023/06/26 02:25:40;;;;;;;15.15;7.45;;;;;;;23.28;63.16;99171.13;3153134;28;20524;-72
2023/06/26 02:27:12;;;;;;;12.43;8.00;;;;;;;23.29;63.07;99170.13;3153301;28;20102;-72
2023/06/26 02:28:45;;;;;;;13.25;8.43;;;;;;;23.30;63.28;99171.78;3153189;28;20048;-72
2023/06/26 02:30:17;;;;;;;19.45;9.35;;;;;;;23.19;63.11;99167.66;3143069;28;20060;-72
2023/06/26 02:31:49;;;;;;;14.80;8.43;;;;;;;23.24;63.24;99170.63;3140204;28;20568;-72
2023/06/26 02:33:20;;;;;;;16.40;8.55;;;;;;;23.22;63.20;99162.00;3150203;28;20588;-72
2023/06/26 02:34:53;;;;;;;14.15;8.25;;;;;;;23.27;63.15;99172.13;3152688;28;20599;-72
2023/06/26 02:36:25;;;;;;;15.80;8.88;;;;;;;23.26;63.77;99168.63;3153113;28;20048;-72
2023/06/26 02:37:57;;;;;;;18.70;9.00;;;;;;;23.20;63.33;99155.19;3153170;28;20056;-72
2023/06/26 02:39:29;;;;;;;14.35;7.63;;;;;;;23.23;63.76;99155.69;3149750;28;20053;-72
2023/06/26 02:41:01;;;;;;;15.55;8.30;;;;;;;23.27;63.40;99158.84;3146567;28;20055;-72
2023/06/26 02:42:33;;;;;;;15.02;8.48;;;;;;;23.26;63.48;99157.19;3152854;28;20052;-72
2023/06/26 02:44:07;;;;;;;19.00;10.45;;;;;;;23.28;63.36;99155.19;3153012;28;20097;-72
2023/06/26 02:45:38;;;;;;;15.77;8.38;;;;;;;23.28;63.39;99153.38;3145547;28;20158;-72
2023/06/26 02:47:09;;;;;;;15.40;8.75;;;;;;;23.28;63.55;99166.66;3150744;28;20052;-72
2023/06/26 02:48:40;;;;;;;18.75;9.13;;;;;;;23.30;63.25;99167.31;3153000;28;20040;-72
2023/06/26 02:50:12;;;;;;;14.75;9.25;;;;;;;23.28;63.19;99171.13;3152597;28;20116;-73
2023/06/26 02:51:44;;;;;;;19.25;8.55;;;;;;;23.29;63.63;99165.66;3152816;28;20458;-72
2023/06/26 02:53:15;;;;;;;12.93;8.20;;;;;;;23.27;63.70;99159.66;3152397;28;20062;-72
2023/06/26 02:54:47;;;;;;;14.73;9.13;;;;;;;23.27;63.57;99166.81;3145976;28;20048;-72
2023/06/26 02:56:19;;;;;;;19.45;9.25;;;;;;;23.28;63.40;99166.66;3152478;28;20517;-74
2023/06/26 02:57:51;;;;;;;14.88;8.43;;;;;;;23.29;63.39;99165.66;3152757;28;20059;-75
2023/06/26 02:59:24;;;;;;;19.95;9.45;;;;;;;23.31;63.26;99155.69;3149752;28;20056;-74
2023/06/26 03:00:56;;;;;;;16.52;8.63;;;;;;;23.31;63.14;99163.66;3140529;28;20071;-75
2023/06/26 03:02:28;;;;;;;19.63;8.95;;;;;;;23.32;63.59;99165.31;3150073;28;20056;-75
2023/06/26 03:04:00;;;;;;;15.70;9.32;;;;;;;23.35;63.13;99169.47;3150572;28;20132;-76
2023/06/26 03:05:32;;;;;;;15.77;8.48;;;;;;;23.35;63.00;99172.13;3140005;28;20066;-76
2023/06/26 03:07:04;;;;;;;14.73;8.27;;;;;;;23.29;63.06;99162.16;3147809;28;20048;-77
2023/06/26 03:08:38;;;;;;;16.88;8.50;;;;;;;23.27;63.36;99183.56;3152638;28;20568;-76
2023/06/26 03:10:10;;;;;;;16.55;8.75;;;;;;;23.25;63.17;99174.97;3152774;28;20044;-75
2023/06/26 03:11:42;;;;;;;16.92;7.97;;;;;;;23.22;63.14;99172.63;3152441;28;20155;-75
2023/06/26 03:13:14;;;;;;;16.48;8.90;;;;;;;23.19;63.15;99175.63;3152447;28;20052;-72
2023/06/26 03:14:47;;;;;;;14.50;8.65;;;;;;;23.24;63.44;99180.44;3150669;28;20056;-70
2023/06/26 03:16:19;;;;;;;;;;;;;;;23.08;63.63;99181.25;3144216;28;20052;-70
2023/06/26 03:17:51;;;;;;;26.42;8.38;;;;;;;23.15;63.52;99176.94;3149104;28;19935;-70
2023/06/26 03:19:23;;;;;;;14.95;9.68;;;;;;;23.19;63.15;99175.63;3141920;28;20086;-69
2023/06/26 03:20:56;;;;;;;16.23;9.07;;;;;;;23.21;63.36;99173.63;3152606;28;20110;-71
2023/06/26 03:22:27;;;;;;;13.20;8.75;;;;;;;23.22;63.42;99179.75;3151664;28;20501;-69
2023/06/26 03:23:59;;;;;;;14.52;8.75;;;;;;;23.23;63.27;99181.44;3139904;28;20476;-69
2023/06/26 03:25:31;;;;;;;17.63;9.57;;;;;;;23.22;63.17;99177.09;3127715;28;20057;-69
2023/06/26 03:27:03;;;;;;;15.57;9.93;;;;;;;23.25;63.33;99177.63;3151902;28;20681;-70
2023/06/26 03:28:36;;;;;;;15.43;9.07;;;;;;;23.27;63.03;99186.22;3152432;28;20079;-70
2023/06/26 03:30:10;;;;;;;15.32;8.85;;;;;;;23.31;63.17;99181.44;3149047;28;20102;-70
2023/06/26 03:31:42;;;;;;;24.10;9.38;;;;;;;23.30;63.39;99183.25;3150292;28;20052;-70
2023/06/26 03:33:14;;;;;;;15.40;9.25;;;;;;;23.32;63.03;99186.56;3152436;28;20055;-70
2023/06/26 03:34:46;;;;;;;18.75;9.50;;;;;;;23.37;63.16;99186.91;3150348;28;20302;-71
2023/06/26 03:36:17;;;;;;;17.05;9.23;;;;;;;23.38;63.04;99196.53;3152283;28;20063;-71
2023/06/26 03:37:49;;;;;;;16.63;9.98;;;;;;;23.42;62.75;99190.88;3152306;28;20056;-71
2023/06/26 03:39:22;;;;;;;13.20;8.10;;;;;;;23.44;62.85;99191.56;3150420;28;20040;-71
2023/06/26 03:40:54;;;;;;;15.77;8.90;;;;;;;23.43;63.03;99197.88;3144791;28;20086;-70
2023/06/26 03:42:25;;;;;;;16.73;9.50;;;;;;;23.44;62.65;99194.22;3148330;28;20597;-72
2023/06/26 03:43:57;;;;;;;14.35;8.65;;;;;;;23.46;62.66;99200.22;3142832;28;20052;-70
2023/06/26 03:45:31;;;;;;;17.05;8.68;;;;;;;23.47;62.42;99180.59;3150144;28;20069;-70
2023/06/26 03:47:02;;;;;;;;;;;;;;;23.32;62.65;99186.56;3151094;28;20543;-70
2023/06/26 03:48:34;;;;;;;14.70;8.50;;;;;;;23.38;62.87;99188.56;3152394;28;19924;-70
2023/06/26 03:50:07;;;;;;;16.88;8.30;;;;;;;23.46;62.51;99184.25;3153042;28;20047;-73
2023/06/26 03:51:39;;;;;;;20.75;8.60;;;;;;;23.47;62.32;99181.41;3163712;28;20105;-71
2023/06/26 03:53:11;;;;;;;14.60;8.77;;;;;;;23.54;62.55;99181.56;3164882;28;20055;-71
2023/06/26 03:54:43;;;;;;;18.40;9.30;;;;;;;23.57;62.51;99183.91;3164300;28;20083;-73
2023/06/26 03:56:15;;;;;;;17.58;8.65;;;;;;;23.57;62.30;99189.22;3158825;28;20130;-73
2023/06/26 03:57:47;;;;;;;16.13;9.15;;;;;;;23.57;62.04;99175.91;3177711;27;20150;-74
2023/06/26 03:59:19;;;;;;;18.48;9.27;;;;;;;23.56;62.14;99180.41;3177727;27;20043;-73
2023/06/26 04:00:53;;;;;;;18.50;9.02;;;;;;;23.58;62.21;99186.41;3170877;27;20116;-73
2023/06/26 04:02:25;;;;;;;15.35;8.85;;;;;;;23.58;62.16;99181.09;3165007;28;20519;-71
2023/06/26 04:03:55;;;;;;;17.27;9.52;;;;;;;23.60;62.11;99187.06;3176024;27;20055;-71
2023/06/26 04:05:27;;;;;;;17.38;9.00;;;;;;;23.65;62.21;99177.75;3176564;27;20526;-70
2023/06/26 04:06:59;;;;;;;20.20;9.35;;;;;;;23.67;61.99;99176.59;3177765;28;20080;-72
2023/06/26 04:08:31;;;;;;;18.63;9.25;;;;;;;23.69;62.16;99174.56;3176453;28;20047;-70
2023/06/26 04:10:04;;;;;;;17.52;9.60;;;;;;;23.68;62.21;99166.78;3177491;28;20138;-70
2023/06/26 04:11:36;;;;;;;19.85;9.77;;;;;;;23.70;62.05;99178.13;3177739;28;20058;-68
2023/06/26 04:13:08;;;;;;;17.40;9.07;;;;;;;23.74;62.11;99172.28;3177550;28;20051;-70
2023/06/26 04:14:40;;;;;;;16.73;9.07;;;;;;;23.76;61.94;99170.28;3177628;28;20051;-71
2023/06/26 04:16:28;;;;;;;19.20;9.82;;;;;;;23.77;61.75;99179.09;3169751;28;20817;-69
2023/06/26 04:17:59;;;;;;;18.20;9.65;;;;;;;23.79;61.67;99180.59;3172492;28;20107;-73
2023/06/26 04:19:31;;;;;;;16.13;10.05;;;;;;;23.81;61.77;99180.41;3177544;28;20144;-72
2023/06/26 04:21:11;;;;;;;26.30;18.13;;;;;;;23.86;61.30;99178.06;3177717;28;20063;-73
2023/06/26 04:22:43;;;;;;;16.75;9.13;;;;;;;23.84;61.19;99166.78;3152717;28;20063;-76
2023/06/26 04:24:15;;;;;;;28.63;11.50;;;;;;;23.90;61.51;99176.75;3177614;28;20173;-70
2023/06/26 04:25:46;;;;;;;12.77;8.63;;;;;;;23.92;61.50;99168.59;3177132;28;20051;-68
2023/06/26 04:27:19;;;;;;;17.90;8.60;;;;;;;23.95;60.96;99168.25;3177542;28;20051;-69
2023/06/26 04:28:51;;;;;;;18.67;9.50;;;;;;;23.92;60.97;99165.94;3178259;28;20039;-69
2023/06/26 04:30:23;;;;;;;19.40;9.63;;;;;;;23.99;60.81;99174.91;3177680;28;20112;-70
2023/06/26 04:31:58;;;;;;;25.23;9.65;;;;;;;24.02;60.77;99175.38;3171182;28;20100;-72
2023/06/26 04:33:30;;;;;;;17.75;9.77;;;;;;;24.05;60.75;99180.34;3173789;28;20066;-68
2023/06/26 04:35:02;;;;;;;17.63;10.02;;;;;;;24.07;60.69;99175.66;3177266;28;20866;-69
2023/06/26 04:36:38;;;;;;;18.70;9.77;;;;;;;24.06;60.88;99178.53;3175238;28;20043;-69
2023/06/26 04:38:11;;;;;;;15.82;9.90;;;;;;;24.06;60.87;99175.84;3174422;28;20061;-67
2023/06/26 04:39:42;;;;;;;15.50;10.93;;;;;;;24.07;60.85;99182.81;3171902;28;20051;-71
2023/06/26 04:41:14;;;;;;;20.55;9.43;;;;;;;24.07;60.70;99180.16;3172095;28;20051;-64
2023/06/26 04:42:46;;;;;;;16.40;9.57;;;;;;;24.08;60.36;99184.50;3173002;28;20052;-66
2023/06/26 04:44:17;;;;;;;14.60;9.57;;;;;;;24.07;60.38;99182.81;3170551;28;20062;-66
2023/06/26 04:45:49;;;;;;;20.42;10.68;;;;;;;24.07;60.66;99182.81;3174601;28;20050;-69
2023/06/26 04:47:22;;;;;;;18.20;9.52;;;;;;;24.09;60.31;99185.34;3163746;28;20414;-70
2023/06/26 04:48:53;;;;;;;;;;;;;;;23.92;60.63;99184.53;3171261;28;20610;-72
2023/06/26 04:50:25;;;;;;;18.55;8.63;;;;;;;23.98;60.76;99192.66;3169075;28;20014;-70
2023/06/26 04:52:00;;;;;;;18.13;9.45;;;;;;;24.03;60.78;99187.66;3168698;28;20097;-72
2023/06/26 04:53:32;;;;;;;17.60;10.90;;;;;;;24.06;60.59;99183.84;3174667;28;20051;-69
2023/06/26 04:55:04;;;;;;;17.23;9.65;;;;;;;24.06;60.62;99187.31;3176912;28;20058;-70
2023/06/26 04:56:36;;;;;;;15.90;9.40;;;;;;;24.11;60.37;99193.94;3170351;27;20055;-69
2023/06/26 04:58:08;;;;;;;15.65;10.30;;;;;;;24.14;60.63;99197.13;3174937;27;20051;-66
2023/06/26 04:59:40;;;;;;;14.13;9.52;;;;;;;24.18;60.65;99187.78;3179536;27;20051;-67
2023/06/26 05:01:13;;;;;;;14.77;9.23;;;;;;;24.17;60.09;99194.13;3172034;27;20055;-68
2023/06/26 05:02:47;;;;;;;16.55;9.07;;;;;;;24.26;59.79;99206.38;3172513;27;20073;-72
2023/06/26 05:04:19;;;;;;;19.98;10.45;;;;;;;24.26;59.75;99209.06;3174532;27;20068;-67
2023/06/26 05:05:52;;;;;;;12.95;8.68;;;;;;;24.23;59.70;99204.06;3173481;27;20059;-69
2023/06/26 05:07:24;;;;;;;16.63;9.70;;;;;;;24.24;59.55;99204.91;3179120;27;20055;-69
2023/06/26 05:08:56;;;;;;;15.82;9.50;;;;;;;24.28;59.22;99216.84;3179153;27;20047;-68
2023/06/26 05:10:27;;;;;;;16.83;8.57;;;;;;;24.34;59.58;99224.13;3179299;27;20108;-74
2023/06/26 05:11:59;;;;;;;17.27;8.77;;;;;;;24.37;59.40;99218.47;3179227;27;20054;-70
2023/06/26 05:13:31;;;;;;;15.20;9.40;;;;;;;24.40;59.03;99223.47;3168463;27;20048;-73
2023/06/26 05:15:03;;;;;;;20.70;9.80;;;;;;;24.41;59.10;99216.31;3179690;27;20051;-71
2023/06/26 05:16:35;;;;;;;16.52;9.25;;;;;;;24.43;58.74;99225.81;3173360;27;20654;-71
2023/06/26 05:18:08;;;;;;;15.27;8.52;;;;;;;24.48;58.65;99223.44;3173714;27;20070;-72
2023/06/26 05:19:40;;;;;;;19.13;9.70;;;;;;;24.53;58.24;99225.63;3166638;27;20598;-70
2023/06/26 05:21:12;;;;;;;14.40;9.15;;;;;;;24.55;58.29;99223.63;3178985;27;20705;-70
2023/06/26 05:22:44;;;;;;;13.43;9.17;;;;;;;24.62;58.06;99235.22;3179049;27;20104;-68
2023/06/26 05:24:17;;;;;;;16.02;9.00;;;;;;;24.67;57.97;99234.72;3170127;27;20100;-69
2023/06/26 05:25:50;;;;;;;14.83;8.87;;;;;;;24.70;57.66;99227.19;3171082;27;20111;-69
2023/06/26 05:27:22;;;;;;;14.60;9.18;;;;;;;24.74;57.61;99233.81;3178727;27;20082;-68
2023/06/26 05:28:55;;;;;;;16.40;9.10;;;;;;;24.78;57.50;99231.63;3178989;27;20122;-67
2023/06/26 05:30:28;;;;;;;17.48;8.93;;;;;;;24.83;57.39;99234.59;3178755;27;20317;-67
2023/06/26 05:32:01;;;;;;;22.00;9.45;;;;;;;24.88;57.54;99228.78;3172436;27;20048;-68
2023/06/26 05:33:42;;;;;;;17.67;9.05;;;;;;;24.95;57.18;99230.53;3179163;27;20055;-67
2023/06/26 05:35:14;;;;;;;14.60;8.48;;;;;;;24.99;57.17;99231.00;3179176;27;20051;-67
2023/06/26 05:36:50;;;;;;;15.48;8.77;;;;;;;25.03;56.92;99226.19;3176991;27;20059;-68
2023/06/26 05:38:23;;;;;;;14.18;8.25;;;;;;;25.05;56.74;99238.31;3178911;27;20078;-68
2023/06/26 05:39:55;;;;;;;15.15;8.68;;;;;;;25.05;56.15;99232.97;3172242;27;20599;-68
2023/06/26 05:41:28;;;;;;;17.42;8.65;;;;;;;25.14;56.20;99233.78;3174488;27;20054;-69
2023/06/26 05:43:02;;;;;;;;;;;;;;;25.04;56.47;99241.97;3165967;28;20422;-70
2023/06/26 05:44:34;;;;;;;16.60;8.18;;;;;;;25.12;56.17;99236.59;3178276;27;19927;-69
2023/06/26 05:46:07;;;;;;;13.70;8.60;;;;;;;25.19;55.96;99237.56;3179108;27;20070;-69
2023/06/26 05:47:39;;;;;;;15.55;7.85;;;;;;;25.22;55.88;99236.41;3167205;27;20621;-67
2023/06/26 05:49:12;;;;;;;12.10;7.47;;;;;;;25.27;55.52;99233.22;3164215;28;20044;-69
2023/06/26 05:50:45;;;;;;;16.27;8.32;;;;;;;25.29;55.19;99232.03;3170718;27;20059;-70
2023/06/26 05:52:17;;;;;;;11.20;7.47;;;;;;;25.32;55.51;99230.81;3179018;27;20485;-69
2023/06/26 05:53:53;;;;;;;11.20;8.07;;;;;;;25.38;55.03;99232.81;3178989;27;20076;-70
2023/06/26 05:58:02;;;;;;;12.68;7.75;;;;;;;25.35;54.86;99231.31;3101834;28;20553;-67
2023/06/26 06:00:06;;;;;;;11.75;6.85;;;;;;;25.39;54.49;99234.44;3151416;27;20043;-69
2023/06/26 06:01:41;;;;;;;9.90;6.97;;;;;;;25.43;54.73;99235.75;3175474;27;20149;-68
2023/06/26 06:03:44;;;;;;;;;;;;;;;25.32;54.44;99234.34;3177232;27;20241;-67
2023/06/26 06:05:18;;;;;;;11.45;7.68;;;;;;;25.39;54.36;99237.94;3172388;27;19930;-65
2023/06/26 06:06:50;;;;;;;15.98;8.07;;;;;;;25.45;54.36;99228.41;3176515;27;20055;-67
2023/06/26 06:08:22;;;;;;;13.67;8.40;;;;;;;25.51;54.50;99227.69;3178043;27;20059;-67
2023/06/26 06:09:55;;;;;;;14.30;7.20;;;;;;;25.58;54.30;99231.28;3178321;27;20316;-67
2023/06/26 06:11:27;;;;;;;15.43;7.65;;;;;;;25.67;53.70;99236.53;3178739;27;20751;-67
2023/06/26 06:13:00;;;;;;;12.40;7.57;;;;;;;25.75;53.64;99236.47;3178624;27;20047;-68
2023/06/26 06:14:35;;;;;;;11.27;7.20;;;;;;;25.77;53.61;99232.63;3178552;27;20485;-70
2023/06/26 06:16:07;;;;;;;11.73;6.97;;;;;;;25.80;53.47;99236.78;3178212;27;20121;-68
2023/06/26 06:17:40;;;;;;;12.13;6.55;;;;;;;25.80;53.51;99244.78;3175606;27;20051;-67
2023/06/26 06:19:13;;;;;;;10.93;6.95;;;;;;;25.78;53.16;99242.28;3178281;27;20070;-69
2023/06/26 06:20:49;;;;;;;12.23;7.03;;;;;;;25.81;52.93;99244.56;3178325;27;20081;-70
2023/06/26 06:22:22;;;;;;;10.43;7.25;;;;;;;25.83;53.04;99252.44;3178610;27;20046;-69
2023/06/26 06:23:54;;;;;;;13.73;6.90;;;;;;;25.85;53.04;99247.75;3178752;27;20061;-68
2023/06/26 06:25:26;;;;;;;16.55;7.82;;;;;;;25.83;53.25;99239.94;3178384;27;20128;-68
2023/06/26 06:26:58;;;;;;;16.90;7.13;;;;;;;25.86;53.16;99244.91;3178417;27;20067;-70
2023/06/26 06:28:30;;;;;;;11.10;6.23;;;;;;;25.90;52.99;99232.03;3178325;27;20854;-71
2023/06/26 06:30:03;;;;;;;12.90;7.23;;;;;;;26.04;52.69;99236.56;3178400;27;20312;-68
2023/06/26 06:31:35;;;;;;;13.98;6.97;;;;;;;26.13;52.41;99239.16;3178169;27;20563;-67
2023/06/26 06:33:08;;;;;;;11.63;7.40;;;;;;;26.16;52.24;99241.44;3166583;28;20079;-70
2023/06/26 06:34:40;;;;;;;11.83;6.63;;;;;;;26.13;52.15;99237.31;3166313;27;20111;-66
2023/06/26 06:36:13;;;;;;;14.07;7.60;;;;;;;26.19;52.24;99235.75;3170751;27;20051;-68
2023/06/26 06:37:45;;;;;;;12.10;6.93;;;;;;;26.23;52.13;99237.03;3168756;27;20526;-67
2023/06/26 06:39:17;;;;;;;10.23;7.30;;;;;;;26.26;52.15;99241.97;3168419;27;20063;-67
2023/06/26 06:40:49;;;;;;;13.70;7.05;;;;;;;26.26;52.01;99233.97;3169760;27;20043;-67
2023/06/26 06:42:21;;;;;;;11.55;6.30;;;;;;;26.23;51.84;99235.16;3178351;27;20047;-69
2023/06/26 06:43:53;;;;;;;11.63;6.40;;;;;;;26.19;52.05;99241.06;3174036;27;20047;-69
2023/06/26 06:45:25;;;;;;;10.20;6.50;;;;;;;26.16;51.55;99236.09;3168403;27;20112;-71
2023/06/26 06:46:57;;;;;;;13.18;7.00;;;;;;;26.19;51.92;99243.75;3177059;27;20103;-68
2023/06/26 06:48:30;;;;;;;15.57;6.50;;;;;;;26.17;51.70;99235.09;3165773;27;20058;-71
2023/06/26 06:50:07;;;;;;;17.67;7.13;;;;;;;26.14;51.80;99230.13;3173713;27;20066;-68
2023/06/26 06:51:41;;;;;;;9.73;7.13;;;;;;;26.12;51.59;99235.66;3152872;28;20742;-69
2023/06/26 06:53:14;;;;;;;14.63;7.05;;;;;;;26.19;51.73;99230.41;3178671;27;20055;-69
2023/06/26 06:54:54;;;;;;;10.48;6.72;;;;;;;26.23;51.57;99237.03;3166905;27;20087;-73
2023/06/26 06:56:26;;;;;;;13.15;6.93;;;;;;;26.24;52.04;99234.19;3152961;28;20062;-72
2023/06/26 06:57:58;;;;;;;9.85;6.47;;;;;;;26.26;51.56;99233.97;3176818;27;20085;-71
2023/06/26 06:59:31;;;;;;;12.75;6.32;;;;;;;26.20;51.38;99229.38;3178129;27;20052;-72
2023/06/26 07:01:04;;;;;;;10.02;5.75;;;;;;;26.27;51.19;99236.47;3170555;27;20443;-72
2023/06/26 07:02:36;;;;;;;13.20;6.47;;;;;;;26.25;51.00;99233.16;3171048;27;20101;-71
2023/06/26 07:04:09;;;;;;;11.23;6.07;;;;;;;26.29;51.23;99238.94;3172243;27;20047;-73
2023/06/26 07:05:43;;;;;;;13.30;6.47;;;;;;;26.34;51.22;99241.91;3178082;27;20087;-72
2023/06/26 07:07:20;;;;;;;13.32;6.28;;;;;;;26.40;50.92;99241.16;3178197;27;20076;-74
2023/06/26 07:08:52;;;;;;;10.90;5.30;;;;;;;26.45;50.83;99244.09;3177828;27;20055;-75
2023/06/26 07:10:24;;;;;;;9.90;6.22;;;;;;;26.48;50.75;99242.91;3178157;27;20146;-75
2023/06/26 07:11:57;;;;;;;12.73;5.78;;;;;;;26.51;50.28;99243.41;3177639;27;20166;-74
2023/06/26 07:13:30;;;;;;;14.30;5.60;;;;;;;26.56;50.11;99234.81;3177689;27;20392;-74
2023/06/26 07:15:04;;;;;;;10.88;4.80;;;;;;;26.66;50.01;99234.53;3177700;27;20079;-74
2023/06/26 07:16:36;;;;;;;14.00;5.82;;;;;;;26.75;49.65;99238.75;3177752;27;20439;-77
2023/06/26 07:18:08;;;;;;;9.73;5.37;;;;;;;26.80;49.75;99231.03;3174629;27;20103;-72